Eben Junction, Michigan
Current Conditions -  °F | °C
As of 4:17 AM on Wednesday 28 Jan 2015 (Local Time) from KSAW Reporting Station
Overcast Overcast  
Wind Chill: 11°   Ceiling: 1600
Heat Index: 21°   Visibility: 10mi
Dew Point: 17°   Wind: 9mph
Humidity: 86%   Direction: 190°S
Pressure: 30.16"   Gusts: NA
Location:  46.35°N, 86.97°W
Report Text: KSAW 280917Z AUTO 19008KT 10SM OVC016 M06/M08 A3016 RMK AO2 T10611081
Loading
Personal Weather Stations






























Interactive Weather Map New forecast layout! Learn more

10-Day Weather Forecast

Advertisements
Track Severe Weather on mobile